sensor_id;sensor_type;location;lat;lon;timestamp;pressure;altitude;pressure_sealevel;temperature;humidity
43488;BME280;29078;41.932;25.554;2022-07-29T00:00:22;99551.44;;;27.66;44.90
43488;BME280;29078;41.932;25.554;2022-07-29T00:02:47;99526.66;;;27.49;44.53
43488;BME280;29078;41.932;25.554;2022-07-29T00:05:13;99610.94;;;27.81;44.54
43488;BME280;29078;41.932;25.554;2022-07-29T00:07:39;99550.53;;;27.47;44.68
43488;BME280;29078;41.932;25.554;2022-07-29T00:10:05;99579.09;;;27.68;44.46
43488;BME280;29078;41.932;25.554;2022-07-29T00:12:30;99529.84;;;27.32;44.50
43488;BME280;29078;41.932;25.554;2022-07-29T00:14:56;99590.63;;;27.79;44.21
43488;BME280;29078;41.932;25.554;2022-07-29T00:17:23;99536.97;;;27.47;44.42
43488;BME280;29078;41.932;25.554;2022-07-29T00:19:48;99542.41;;;27.47;44.26
43488;BME280;29078;41.932;25.554;2022-07-29T00:22:14;99502.25;;;27.25;44.53
43488;BME280;29078;41.932;25.554;2022-07-29T00:24:39;99548.91;;;27.51;44.90
43488;BME280;29078;41.932;25.554;2022-07-29T00:27:05;99591.72;;;27.78;45.35
43488;BME280;29078;41.932;25.554;2022-07-29T00:29:31;99525.16;;;27.38;45.66
43488;BME280;29078;41.932;25.554;2022-07-29T00:31:56;99554.78;;;27.58;45.81
43488;BME280;29078;41.932;25.554;2022-07-29T00:34:22;99520.41;;;27.48;46.07
43488;BME280;29078;41.932;25.554;2022-07-29T00:37:06;99561.16;;;27.72;46.48
43488;BME280;29078;41.932;25.554;2022-07-29T00:39:31;99578.91;;;27.83;46.28
43488;BME280;29078;41.932;25.554;2022-07-29T00:41:56;99504.69;;;27.27;46.91
43488;BME280;29078;41.932;25.554;2022-07-29T00:44:22;99557.47;;;27.63;46.90
43488;BME280;29078;41.932;25.554;2022-07-29T00:46:47;99500.66;;;27.24;47.26
43488;BME280;29078;41.932;25.554;2022-07-29T00:49:13;99577.84;;;27.61;47.57
43488;BME280;29078;41.932;25.554;2022-07-29T00:51:38;99579.25;;;27.53;47.91
43488;BME280;29078;41.932;25.554;2022-07-29T00:54:05;99491.19;;;26.98;47.89
43488;BME280;29078;41.932;25.554;2022-07-29T00:56:31;99563.56;;;27.45;48.03
43488;BME280;29078;41.932;25.554;2022-07-29T00:58:57;99557.34;;;27.44;48.03
43488;BME280;29078;41.932;25.554;2022-07-29T01:01:23;99513.75;;;27.17;48.13
43488;BME280;29078;41.932;25.554;2022-07-29T01:03:49;99465.25;;;26.86;48.24
43488;BME280;29078;41.932;25.554;2022-07-29T01:06:16;99553.84;;;27.44;47.85
43488;BME280;29078;41.932;25.554;2022-07-29T01:08:43;99524.88;;;27.15;47.61
43488;BME280;29078;41.932;25.554;2022-07-29T01:11:09;99501.72;;;26.99;47.82
43488;BME280;29078;41.932;25.554;2022-07-29T01:13:36;99550.78;;;27.27;48.02
43488;BME280;29078;41.932;25.554;2022-07-29T01:16:15;99523.34;;;27.04;47.88
43488;BME280;29078;41.932;25.554;2022-07-29T01:18:46;99512.84;;;26.98;47.71
43488;BME280;29078;41.932;25.554;2022-07-29T01:24:17;99561.44;;;27.18;47.60
43488;BME280;29078;41.932;25.554;2022-07-29T01:29:57;99537.25;;;26.92;47.86
43488;BME280;29078;41.932;25.554;2022-07-29T01:32:27;99520.59;;;26.75;47.55
43488;BME280;29078;41.932;25.554;2022-07-29T01:34:58;99455.69;;;26.31;47.73
43488;BME280;29078;41.932;25.554;2022-07-29T01:37:32;99495.94;;;26.48;47.26
43488;BME280;29078;41.932;25.554;2022-07-29T01:39:59;99569.59;;;26.84;47.37
43488;BME280;29078;41.932;25.554;2022-07-29T01:42:43;99558.56;;;26.70;47.16
43488;BME280;29078;41.932;25.554;2022-07-29T01:45:15;99551.28;;;26.66;47.67
43488;BME280;29078;41.932;25.554;2022-07-29T01:47:46;99553.53;;;26.58;47.63
43488;BME280;29078;41.932;25.554;2022-07-29T01:50:14;99526.84;;;26.42;47.80
43488;BME280;29078;41.932;25.554;2022-07-29T01:52:52;99446.97;;;26.00;47.74
43488;BME280;29078;41.932;25.554;2022-07-29T01:55:23;99543.72;;;26.63;47.34
43488;BME280;29078;41.932;25.554;2022-07-29T01:57:51;99500.09;;;26.30;47.29
43488;BME280;29078;41.932;25.554;2022-07-29T02:00:16;99453.75;;;26.03;46.98
43488;BME280;29078;41.932;25.554;2022-07-29T02:02:44;99497.66;;;26.34;47.26
43488;BME280;29078;41.932;25.554;2022-07-29T02:05:15;99553.00;;;26.56;47.44
43488;BME280;29078;41.932;25.554;2022-07-29T02:07:42;99517.38;;;26.39;47.77
43488;BME280;29078;41.932;25.554;2022-07-29T02:10:09;99486.44;;;26.11;47.56
43488;BME280;29078;41.932;25.554;2022-07-29T02:12:36;99538.69;;;26.51;47.68
43488;BME280;29078;41.932;25.554;2022-07-29T02:15:04;99492.06;;;26.20;47.63
43488;BME280;29078;41.932;25.554;2022-07-29T02:17:34;99536.75;;;26.56;47.38
43488;BME280;29078;41.932;25.554;2022-07-29T02:20:02;99531.63;;;26.55;47.00
43488;BME280;29078;41.932;25.554;2022-07-29T02:22:30;99534.94;;;26.47;47.03
43488;BME280;29078;41.932;25.554;2022-07-29T02:24:57;99488.91;;;26.08;47.31
43488;BME280;29078;41.932;25.554;2022-07-29T02:27:24;99544.22;;;26.36;47.41
43488;BME280;29078;41.932;25.554;2022-07-29T02:29:53;99424.50;;;25.60;47.26
43488;BME280;29078;41.932;25.554;2022-07-29T02:32:21;99441.28;;;25.57;47.60
43488;BME280;29078;41.932;25.554;2022-07-29T02:34:49;99468.81;;;25.70;47.72
43488;BME280;29078;41.932;25.554;2022-07-29T02:37:17;99454.50;;;25.64;48.25
43488;BME280;29078;41.932;25.554;2022-07-29T02:39:44;99480.44;;;25.70;48.04
43488;BME280;29078;41.932;25.554;2022-07-29T02:42:13;99511.50;;;25.78;48.03
43488;BME280;29078;41.932;25.554;2022-07-29T02:44:39;99501.28;;;25.70;48.38
43488;BME280;29078;41.932;25.554;2022-07-29T02:47:25;99530.44;;;25.78;48.48
43488;BME280;29078;41.932;25.554;2022-07-29T02:50:29;99521.31;;;25.58;48.73
43488;BME280;29078;41.932;25.554;2022-07-29T02:53:11;99536.16;;;25.61;49.21
43488;BME280;29078;41.932;25.554;2022-07-29T02:55:44;99430.69;;;24.91;48.77
43488;BME280;29078;41.932;25.554;2022-07-29T02:58:30;99536.19;;;25.51;48.75
43488;BME280;29078;41.932;25.554;2022-07-29T03:00:59;99504.66;;;25.31;49.12
43488;BME280;29078;41.932;25.554;2022-07-29T03:03:29;99513.03;;;25.29;48.90
43488;BME280;29078;41.932;25.554;2022-07-29T03:05:56;99523.28;;;25.32;48.93
43488;BME280;29078;41.932;25.554;2022-07-29T03:08:23;99509.53;;;25.19;49.07
43488;BME280;29078;41.932;25.554;2022-07-29T03:10:50;99475.53;;;24.87;48.87
43488;BME280;29078;41.932;25.554;2022-07-29T03:13:16;99527.91;;;25.12;48.81
43488;BME280;29078;41.932;25.554;2022-07-29T03:15:44;99494.72;;;24.81;48.92
43488;BME280;29078;41.932;25.554;2022-07-29T03:18:10;99494.44;;;24.82;49.21
43488;BME280;29078;41.932;25.554;2022-07-29T03:20:37;99531.97;;;24.94;49.22
43488;BME280;29078;41.932;25.554;2022-07-29T03:23:03;99506.06;;;24.73;49.38
43488;BME280;29078;41.932;25.554;2022-07-29T03:25:29;99472.34;;;24.55;49.59
43488;BME280;29078;41.932;25.554;2022-07-29T03:27:55;99489.63;;;24.54;49.64
43488;BME280;29078;41.932;25.554;2022-07-29T03:30:21;99550.34;;;24.92;49.72
43488;BME280;29078;41.932;25.554;2022-07-29T03:32:47;99476.09;;;24.44;49.38
43488;BME280;29078;41.932;25.554;2022-07-29T03:35:12;99503.13;;;24.59;49.59
43488;BME280;29078;41.932;25.554;2022-07-29T03:37:38;99486.91;;;24.54;49.88
43488;BME280;29078;41.932;25.554;2022-07-29T03:40:07;99561.97;;;24.97;49.63
43488;BME280;29078;41.932;25.554;2022-07-29T03:42:35;99565.47;;;24.93;50.06
43488;BME280;29078;41.932;25.554;2022-07-29T03:45:05;99568.44;;;24.91;50.09
43488;BME280;29078;41.932;25.554;2022-07-29T03:47:32;99531.47;;;24.66;50.22
43488;BME280;29078;41.932;25.554;2022-07-29T03:50:05;99571.69;;;24.93;50.29
43488;BME280;29078;41.932;25.554;2022-07-29T03:52:31;99577.34;;;24.92;50.35
43488;BME280;29078;41.932;25.554;2022-07-29T03:54:56;99575.47;;;24.92;50.41
43488;BME280;29078;41.932;25.554;2022-07-29T03:57:24;99515.00;;;24.53;50.47
43488;BME280;29078;41.932;25.554;2022-07-29T03:59:51;99587.06;;;24.93;50.30
43488;BME280;29078;41.932;25.554;2022-07-29T04:02:17;99512.00;;;24.39;50.26
43488;BME280;29078;41.932;25.554;2022-07-29T04:04:42;99519.84;;;24.56;50.17
43488;BME280;29078;41.932;25.554;2022-07-29T04:07:14;99584.41;;;24.98;50.26
43488;BME280;29078;41.932;25.554;2022-07-29T04:09:40;99587.09;;;24.98;50.25
43488;BME280;29078;41.932;25.554;2022-07-29T04:12:05;99582.75;;;24.97;50.24
43488;BME280;29078;41.932;25.554;2022-07-29T04:14:32;99587.63;;;24.95;50.61
43488;BME280;29078;41.932;25.554;2022-07-29T04:16:58;99540.09;;;24.68;50.36
43488;BME280;29078;41.932;25.554;2022-07-29T04:19:24;99587.09;;;24.98;50.52
43488;BME280;29078;41.932;25.554;2022-07-29T04:21:49;99563.59;;;24.73;50.55
43488;BME280;29078;41.932;25.554;2022-07-29T04:24:15;99583.84;;;24.96;50.47
43488;BME280;29078;41.932;25.554;2022-07-29T04:26:41;99584.13;;;24.99;50.47
43488;BME280;29078;41.932;25.554;2022-07-29T04:29:06;99594.38;;;25.13;49.85
43488;BME280;29078;41.932;25.554;2022-07-29T04:31:31;99482.84;;;24.41;49.72
43488;BME280;29078;41.932;25.554;2022-07-29T04:33:57;99593.03;;;25.00;50.15
43488;BME280;29078;41.932;25.554;2022-07-29T04:36:22;99595.75;;;25.00;49.88
43488;BME280;29078;41.932;25.554;2022-07-29T04:38:48;99480.13;;;24.26;50.03
43488;BME280;29078;41.932;25.554;2022-07-29T04:41:13;99570.59;;;24.84;50.13
43488;BME280;29078;41.932;25.554;2022-07-29T04:43:39;99574.94;;;25.00;49.86
43488;BME280;29078;41.932;25.554;2022-07-29T04:46:06;99553.59;;;24.94;49.74
43488;BME280;29078;41.932;25.554;2022-07-29T04:48:31;99589.78;;;25.28;49.64
43488;BME280;29078;41.932;25.554;2022-07-29T04:50:57;99607.06;;;25.38;49.30
43488;BME280;29078;41.932;25.554;2022-07-29T04:53:23;99605.97;;;25.49;49.41
43488;BME280;29078;41.932;25.554;2022-07-29T04:55:48;99562.22;;;25.31;49.30
43488;BME280;29078;41.932;25.554;2022-07-29T04:58:14;99540.03;;;25.24;49.00
43488;BME280;29078;41.932;25.554;2022-07-29T05:00:40;99616.19;;;25.77;48.86
43488;BME280;29078;41.932;25.554;2022-07-29T05:03:05;99562.47;;;25.35;48.39
43488;BME280;29078;41.932;25.554;2022-07-29T05:05:31;99606.69;;;25.80;48.46
43488;BME280;29078;41.932;25.554;2022-07-29T05:07:56;99591.59;;;25.63;48.24
43488;BME280;29078;41.932;25.554;2022-07-29T05:10:22;99615.56;;;25.95;47.83
43488;BME280;29078;41.932;25.554;2022-07-29T05:12:47;99570.72;;;25.79;47.49
43488;BME280;29078;41.932;25.554;2022-07-29T05:15:13;99630.63;;;26.22;47.53
43488;BME280;29078;41.932;25.554;2022-07-29T05:17:39;99601.97;;;26.16;47.22
43488;BME280;29078;41.932;25.554;2022-07-29T05:20:05;99611.94;;;26.25;46.92
43488;BME280;29078;41.932;25.554;2022-07-29T05:22:31;99515.59;;;25.70;46.90
43488;BME280;29078;41.932;25.554;2022-07-29T05:24:57;99624.84;;;26.44;46.69
43488;BME280;29078;41.932;25.554;2022-07-29T05:27:22;99518.78;;;25.82;46.43
43488;BME280;29078;41.932;25.554;2022-07-29T05:29:47;99638.88;;;26.51;46.51
43488;BME280;29078;41.932;25.554;2022-07-29T05:32:13;99602.16;;;26.29;46.45
43488;BME280;29078;41.932;25.554;2022-07-29T05:34:38;99589.72;;;26.28;46.28
43488;BME280;29078;41.932;25.554;2022-07-29T05:37:04;99625.34;;;26.51;46.30
43488;BME280;29078;41.932;25.554;2022-07-29T05:39:30;99603.16;;;26.49;46.30
43488;BME280;29078;41.932;25.554;2022-07-29T05:41:55;99544.59;;;26.14;45.75
43488;BME280;29078;41.932;25.554;2022-07-29T05:44:21;99576.09;;;26.44;45.68
43488;BME280;29078;41.932;25.554;2022-07-29T05:46:46;99620.53;;;26.82;45.50
43488;BME280;29078;41.932;25.554;2022-07-29T05:49:11;99629.16;;;26.89;44.90
43488;BME280;29078;41.932;25.554;2022-07-29T05:51:37;99595.16;;;26.68;44.32
43488;BME280;29078;41.932;25.554;2022-07-29T05:54:02;99605.13;;;26.77;44.16
43488;BME280;29078;41.932;25.554;2022-07-29T05:56:28;99661.53;;;27.09;44.20
43488;BME280;29078;41.932;25.554;2022-07-29T05:58:54;99604.81;;;26.84;44.04
43488;BME280;29078;41.932;25.554;2022-07-29T06:01:19;99657.34;;;27.22;43.99
43488;BME280;29078;41.932;25.554;2022-07-29T06:03:45;99570.50;;;26.69;44.06
43488;BME280;29078;41.932;25.554;2022-07-29T06:06:11;99624.97;;;27.07;44.19
43488;BME280;29078;41.932;25.554;2022-07-29T06:08:37;99563.22;;;26.65;44.20
43488;BME280;29078;41.932;25.554;2022-07-29T06:11:03;99631.06;;;27.22;44.00
43488;BME280;29078;41.932;25.554;2022-07-29T06:13:29;99631.75;;;27.33;44.11
43488;BME280;29078;41.932;25.554;2022-07-29T06:15:54;99647.88;;;27.48;43.97
43488;BME280;29078;41.932;25.554;2022-07-29T06:18:20;99649.19;;;27.56;43.73
43488;BME280;29078;41.932;25.554;2022-07-29T06:20:52;99591.78;;;27.20;43.69
43488;BME280;29078;41.932;25.554;2022-07-29T06:23:18;99608.13;;;27.39;43.41
43488;BME280;29078;41.932;25.554;2022-07-29T06:25:44;99598.03;;;27.44;43.24
43488;BME280;29078;41.932;25.554;2022-07-29T06:28:10;99640.63;;;27.73;43.17
43488;BME280;29078;41.932;25.554;2022-07-29T06:30:35;99622.56;;;27.63;43.11
43488;BME280;29078;41.932;25.554;2022-07-29T06:33:01;99548.31;;;27.01;43.20
43488;BME280;29078;41.932;25.554;2022-07-29T06:35:27;99531.66;;;27.13;43.47
43488;BME280;29078;41.932;25.554;2022-07-29T06:37:53;99635.66;;;27.80;43.39
43488;BME280;29078;41.932;25.554;2022-07-29T06:40:18;99631.50;;;27.88;42.78
43488;BME280;29078;41.932;25.554;2022-07-29T06:43:02;99614.53;;;27.77;42.23
43488;BME280;29078;41.932;25.554;2022-07-29T06:45:28;99583.50;;;27.64;42.19
43488;BME280;29078;41.932;25.554;2022-07-29T06:47:53;99580.78;;;27.64;42.22
43488;BME280;29078;41.932;25.554;2022-07-29T06:50:19;99627.50;;;28.04;41.84
43488;BME280;29078;41.932;25.554;2022-07-29T06:52:47;99604.88;;;27.90;41.45
43488;BME280;29078;41.932;25.554;2022-07-29T06:55:12;99609.59;;;28.03;41.08
43488;BME280;29078;41.932;25.554;2022-07-29T06:57:37;99565.34;;;27.83;41.14
43488;BME280;29078;41.932;25.554;2022-07-29T07:00:04;99561.97;;;27.92;40.90
43488;BME280;29078;41.932;25.554;2022-07-29T07:02:30;99559.78;;;27.94;40.98
43488;BME280;29078;41.932;25.554;2022-07-29T07:04:55;99623.09;;;28.32;40.18
43488;BME280;29078;41.932;25.554;2022-07-29T07:07:21;99571.97;;;28.15;39.62
43488;BME280;29078;41.932;25.554;2022-07-29T07:09:46;99630.00;;;28.62;39.86
43488;BME280;29078;41.932;25.554;2022-07-29T07:12:12;99566.97;;;28.27;39.52
43488;BME280;29078;41.932;25.554;2022-07-29T07:14:37;99555.00;;;28.28;39.45
43488;BME280;29078;41.932;25.554;2022-07-29T07:17:02;99603.78;;;28.71;38.95
43488;BME280;29078;41.932;25.554;2022-07-29T07:19:29;99584.25;;;28.69;38.77
43488;BME280;29078;41.932;25.554;2022-07-29T07:21:54;99482.88;;;28.17;38.54
43488;BME280;29078;41.932;25.554;2022-07-29T07:24:20;99612.41;;;29.10;38.46
43488;BME280;29078;41.932;25.554;2022-07-29T07:26:45;99568.88;;;28.78;38.25
43488;BME280;29078;41.932;25.554;2022-07-29T07:29:10;99597.13;;;29.15;37.51
43488;BME280;29078;41.932;25.554;2022-07-29T07:31:37;99587.44;;;29.08;37.07
43488;BME280;29078;41.932;25.554;2022-07-29T07:34:03;99610.25;;;29.40;36.99
43488;BME280;29078;41.932;25.554;2022-07-29T07:36:28;99616.13;;;29.47;37.15
43488;BME280;29078;41.932;25.554;2022-07-29T07:38:54;99591.41;;;29.30;36.67
43488;BME280;29078;41.932;25.554;2022-07-29T07:41:19;99555.22;;;29.16;36.51
43488;BME280;29078;41.932;25.554;2022-07-29T07:43:45;99600.50;;;29.66;36.46
43488;BME280;29078;41.932;25.554;2022-07-29T07:46:10;99602.84;;;29.73;35.91
43488;BME280;29078;41.932;25.554;2022-07-29T07:48:35;99597.13;;;29.75;36.10
43488;BME280;29078;41.932;25.554;2022-07-29T07:51:01;99573.09;;;29.63;35.62
43488;BME280;29078;41.932;25.554;2022-07-29T07:53:26;99574.63;;;29.83;35.54
43488;BME280;29078;41.932;25.554;2022-07-29T07:55:52;99571.28;;;29.86;35.67
43488;BME280;29078;41.932;25.554;2022-07-29T07:58:18;99594.34;;;30.16;35.61
43488;BME280;29078;41.932;25.554;2022-07-29T08:00:43;99602.41;;;30.21;35.05
43488;BME280;29078;41.932;25.554;2022-07-29T08:03:08;99554.63;;;30.01;34.84
43488;BME280;29078;41.932;25.554;2022-07-29T08:05:37;99595.50;;;30.37;34.35
43488;BME280;29078;41.932;25.554;2022-07-29T08:08:03;99539.31;;;30.05;34.89
43488;BME280;29078;41.932;25.554;2022-07-29T08:10:28;99585.22;;;30.48;34.85
43488;BME280;29078;41.932;25.554;2022-07-29T08:13:12;99571.19;;;30.41;34.45
43488;BME280;29078;41.932;25.554;2022-07-29T08:15:39;99599.88;;;30.74;34.35
43488;BME280;29078;41.932;25.554;2022-07-29T08:18:05;99570.53;;;30.57;34.06
43488;BME280;29078;41.932;25.554;2022-07-29T08:20:31;99558.41;;;30.63;33.97
43488;BME280;29078;41.932;25.554;2022-07-29T08:22:59;99566.22;;;30.79;33.87
43488;BME280;29078;41.932;25.554;2022-07-29T08:25:24;99554.88;;;30.85;33.92
43488;BME280;29078;41.932;25.554;2022-07-29T08:27:52;99569.75;;;31.10;33.94
43488;BME280;29078;41.932;25.554;2022-07-29T08:30:18;99561.91;;;31.09;33.47
43488;BME280;29078;41.932;25.554;2022-07-29T08:32:43;99591.13;;;31.39;33.29
43488;BME280;29078;41.932;25.554;2022-07-29T08:35:09;99552.09;;;31.30;33.64
43488;BME280;29078;41.932;25.554;2022-07-29T08:37:34;99580.31;;;31.65;33.20
43488;BME280;29078;41.932;25.554;2022-07-29T08:40:00;99576.34;;;31.71;33.38
43488;BME280;29078;41.932;25.554;2022-07-29T08:42:25;99583.91;;;31.83;33.09
43488;BME280;29078;41.932;25.554;2022-07-29T08:44:50;99577.03;;;31.94;32.92
43488;BME280;29078;41.932;25.554;2022-07-29T08:47:16;99500.81;;;31.49;32.63
43488;BME280;29078;41.932;25.554;2022-07-29T08:49:42;99573.38;;;32.07;32.65
43488;BME280;29078;41.932;25.554;2022-07-29T08:52:10;99548.16;;;32.02;32.44
43488;BME280;29078;41.932;25.554;2022-07-29T08:54:39;99552.03;;;32.18;32.07
43488;BME280;29078;41.932;25.554;2022-07-29T08:57:05;99572.31;;;32.43;31.99
43488;BME280;29078;41.932;25.554;2022-07-29T08:59:34;99400.94;;;31.40;32.01
43488;BME280;29078;41.932;25.554;2022-07-29T09:01:59;99522.47;;;32.29;31.22
43488;BME280;29078;41.932;25.554;2022-07-29T09:04:29;99566.00;;;32.68;31.11
43488;BME280;29078;41.932;25.554;2022-07-29T09:06:57;99515.06;;;32.46;30.91
43488;BME280;29078;41.932;25.554;2022-07-29T09:09:26;99573.28;;;32.81;30.75
43488;BME280;29078;41.932;25.554;2022-07-29T09:11:52;99502.63;;;32.66;30.82
43488;BME280;29078;41.932;25.554;2022-07-29T09:14:18;99501.84;;;32.74;30.46
43488;BME280;29078;41.932;25.554;2022-07-29T09:16:50;99556.41;;;33.26;30.39
43488;BME280;29078;41.932;25.554;2022-07-29T09:19:21;99534.84;;;33.25;30.00
43488;BME280;29078;41.932;25.554;2022-07-29T09:21:46;99514.19;;;33.44;30.38
43488;BME280;29078;41.932;25.554;2022-07-29T09:27:00;99539.00;;;33.98;29.09
43488;BME280;29078;41.932;25.554;2022-07-29T09:29:26;99485.94;;;33.82;28.95
43488;BME280;29078;41.932;25.554;2022-07-29T09:31:54;99504.25;;;34.11;29.13
43488;BME280;29078;41.932;25.554;2022-07-29T09:34:27;99554.41;;;34.53;28.40
43488;BME280;29078;41.932;25.554;2022-07-29T09:36:55;99502.00;;;34.34;28.29
43488;BME280;29078;41.932;25.554;2022-07-29T09:39:34;99501.78;;;34.39;28.23
43488;BME280;29078;41.932;25.554;2022-07-29T09:42:05;99492.09;;;34.41;27.72
43488;BME280;29078;41.932;25.554;2022-07-29T09:44:40;99536.41;;;34.77;28.17
43488;BME280;29078;41.932;25.554;2022-07-29T09:47:06;99479.94;;;34.63;27.22
43488;BME280;29078;41.932;25.554;2022-07-29T09:49:33;99531.16;;;35.04;26.82
43488;BME280;29078;41.932;25.554;2022-07-29T09:52:06;99527.16;;;35.26;26.54
43488;BME280;29078;41.932;25.554;2022-07-29T09:54:33;99544.69;;;35.34;26.66
43488;BME280;29078;41.932;25.554;2022-07-29T09:57:03;99511.75;;;35.34;27.17
43488;BME280;29078;41.932;25.554;2022-07-29T09:59:29;99477.75;;;35.39;26.53
43488;BME280;29078;41.932;25.554;2022-07-29T10:01:55;99529.25;;;35.90;26.34
43488;BME280;29078;41.932;25.554;2022-07-29T10:04:21;99505.66;;;35.89;25.93
43488;BME280;29078;41.932;25.554;2022-07-29T10:07:01;99530.16;;;36.22;25.68
43488;BME280;29078;41.932;25.554;2022-07-29T10:09:28;99518.81;;;36.24;25.59
43488;BME280;29078;41.932;25.554;2022-07-29T10:12:09;99511.59;;;36.32;25.54
43488;BME280;29078;41.932;25.554;2022-07-29T10:14:36;99497.94;;;36.35;25.22
43488;BME280;29078;41.932;25.554;2022-07-29T10:17:04;99514.06;;;36.77;24.76
43488;BME280;29078;41.932;25.554;2022-07-29T10:19:31;99525.06;;;36.92;24.07
43488;BME280;29078;41.932;25.554;2022-07-29T10:22:00;99445.94;;;36.42;23.71
43488;BME280;29078;41.932;25.554;2022-07-29T10:24:27;99488.94;;;36.78;23.97
43488;BME280;29078;41.932;25.554;2022-07-29T10:26:57;99508.56;;;37.08;24.07
43488;BME280;29078;41.932;25.554;2022-07-29T10:29:24;99431.66;;;36.68;23.98
43488;BME280;29078;41.932;25.554;2022-07-29T10:40:36;99494.69;;;37.87;23.50
43488;BME280;29078;41.932;25.554;2022-07-29T10:43:26;99466.69;;;37.85;23.07
43488;BME280;29078;41.932;25.554;2022-07-29T10:45:59;99448.84;;;37.79;22.61
43488;BME280;29078;41.932;25.554;2022-07-29T10:48:25;99465.63;;;37.90;22.77
43488;BME280;29078;41.932;25.554;2022-07-29T10:50:59;99488.00;;;38.04;22.66
43488;BME280;29078;41.932;25.554;2022-07-29T10:56:27;99477.63;;;38.36;23.12
43488;BME280;29078;41.932;25.554;2022-07-29T11:01:44;99447.44;;;38.04;22.25
43488;BME280;29078;41.932;25.554;2022-07-29T11:04:09;99418.34;;;38.07;22.53
43488;BME280;29078;41.932;25.554;2022-07-29T11:07:06;99475.97;;;38.54;22.18
43488;BME280;29078;41.932;25.554;2022-07-29T11:09:33;99447.59;;;38.54;22.50
43488;BME280;29078;41.932;25.554;2022-07-29T11:11:58;99465.38;;;38.75;22.62
43488;BME280;29078;41.932;25.554;2022-07-29T11:17:20;99436.53;;;38.73;22.45
43488;BME280;29078;41.932;25.554;2022-07-29T11:19:45;99463.16;;;38.85;21.80
43488;BME280;29078;41.932;25.554;2022-07-29T11:22:12;99439.06;;;38.82;21.68
43488;BME280;29078;41.932;25.554;2022-07-29T11:25:15;99420.22;;;38.87;21.39
43488;BME280;29078;41.932;25.554;2022-07-29T11:27:41;99433.22;;;38.87;21.40
43488;BME280;29078;41.932;25.554;2022-07-29T11:30:07;99400.41;;;38.82;21.35
43488;BME280;29078;41.932;25.554;2022-07-29T11:32:42;99437.72;;;39.21;21.26
43488;BME280;29078;41.932;25.554;2022-07-29T11:35:22;99436.75;;;39.36;21.23
43488;BME280;29078;41.932;25.554;2022-07-29T11:49:07;99335.06;;;39.16;21.13
43488;BME280;29078;41.932;25.554;2022-07-29T11:51:34;99426.97;;;39.69;21.13
43488;BME280;29078;41.932;25.554;2022-07-29T11:54:01;99388.06;;;39.51;21.12
43488;BME280;29078;41.932;25.554;2022-07-29T11:56:31;99425.59;;;39.52;20.89
43488;BME280;29078;41.932;25.554;2022-07-29T11:59:04;99413.59;;;39.45;20.87
43488;BME280;29078;41.932;25.554;2022-07-29T12:01:30;99364.38;;;39.24;21.17
43488;BME280;29078;41.932;25.554;2022-07-29T12:04:07;99364.66;;;39.45;20.73
43488;BME280;29078;41.932;25.554;2022-07-29T12:06:33;99372.78;;;39.61;20.71
43488;BME280;29078;41.932;25.554;2022-07-29T12:08:59;99405.13;;;39.90;20.70
43488;BME280;29078;41.932;25.554;2022-07-29T12:11:25;99381.66;;;39.77;20.73
43488;BME280;29078;41.932;25.554;2022-07-29T12:13:51;99355.69;;;39.85;20.72
43488;BME280;29078;41.932;25.554;2022-07-29T12:16:17;99377.44;;;40.20;20.39
43488;BME280;29078;41.932;25.554;2022-07-29T12:18:57;99401.81;;;40.48;19.73
43488;BME280;29078;41.932;25.554;2022-07-29T12:21:23;99339.00;;;40.12;20.05
43488;BME280;29078;41.932;25.554;2022-07-29T12:23:56;99347.56;;;39.99;19.96
43488;BME280;29078;41.932;25.554;2022-07-29T12:26:21;99364.69;;;40.12;20.25
43488;BME280;29078;41.932;25.554;2022-07-29T12:28:48;99308.19;;;39.76;20.20
43488;BME280;29078;41.932;25.554;2022-07-29T12:31:14;99380.44;;;40.42;20.20
43488;BME280;29078;41.932;25.554;2022-07-29T12:33:40;99384.41;;;40.44;19.91
43488;BME280;29078;41.932;25.554;2022-07-29T12:36:06;99383.53;;;40.37;19.76
43488;BME280;29078;41.932;25.554;2022-07-29T12:38:33;99366.94;;;40.37;19.86
43488;BME280;29078;41.932;25.554;2022-07-29T12:41:00;99370.25;;;40.56;19.64
43488;BME280;29078;41.932;25.554;2022-07-29T12:43:26;99304.84;;;39.93;20.02
43488;BME280;29078;41.932;25.554;2022-07-29T12:45:53;99368.78;;;40.25;20.18
43488;BME280;29078;41.932;25.554;2022-07-29T12:48:41;99353.38;;;40.24;19.80
43488;BME280;29078;41.932;25.554;2022-07-29T12:51:08;99310.81;;;39.99;19.72
43488;BME280;29078;41.932;25.554;2022-07-29T12:53:34;99358.19;;;40.34;19.71
43488;BME280;29078;41.932;25.554;2022-07-29T12:56:00;99349.16;;;40.38;19.72
43488;BME280;29078;41.932;25.554;2022-07-29T12:58:38;99334.41;;;40.26;19.84
43488;BME280;29078;41.932;25.554;2022-07-29T13:03:29;99350.75;;;40.39;19.45
43488;BME280;29078;41.932;25.554;2022-07-29T13:06:06;99297.59;;;40.19;19.28
43488;BME280;29078;41.932;25.554;2022-07-29T13:08:31;99293.03;;;40.37;18.98
43488;BME280;29078;41.932;25.554;2022-07-29T13:10:57;99290.41;;;40.58;18.68
43488;BME280;29078;41.932;25.554;2022-07-29T13:13:22;99258.97;;;40.33;18.57
43488;BME280;29078;41.932;25.554;2022-07-29T13:16:05;99331.59;;;40.67;18.54
43488;BME280;29078;41.932;25.554;2022-07-29T13:18:34;99332.78;;;40.66;18.61
43488;BME280;29078;41.932;25.554;2022-07-29T13:21:16;99328.91;;;40.78;18.70
43488;BME280;29078;41.932;25.554;2022-07-29T13:23:41;99328.16;;;40.81;18.47
43488;BME280;29078;41.932;25.554;2022-07-29T13:26:10;99262.91;;;40.28;18.21
43488;BME280;29078;41.932;25.554;2022-07-29T13:28:37;99312.13;;;40.56;18.36
43488;BME280;29078;41.932;25.554;2022-07-29T13:31:02;99322.16;;;40.75;18.39
43488;BME280;29078;41.932;25.554;2022-07-29T13:33:29;99330.50;;;40.79;18.31